sensor_id;sensor_type;location;lat;lon;timestamp;P1;durP1;ratioP1;P2;durP2;ratioP2
47812;SDS011;34221;45.296;9.516;2022-08-03T00:00:05;19.52;;;14.95;;
47812;SDS011;34221;45.296;9.516;2022-08-03T00:00:27;19.38;;;14.93;;
47812;SDS011;34221;45.296;9.516;2022-08-03T00:00:42;18.48;;;14.63;;
47812;SDS011;34221;45.296;9.516;2022-08-03T00:00:57;19.55;;;14.57;;
47812;SDS011;34221;45.296;9.516;2022-08-03T00:01:14;19.17;;;14.68;;
47812;SDS011;34221;45.296;9.516;2022-08-03T00:01:30;18.13;;;14.68;;
47812;SDS011;34221;45.296;9.516;2022-08-03T00:01:45;18.23;;;14.50;;
47812;SDS011;34221;45.296;9.516;2022-08-03T00:02:00;19.67;;;14.50;;
47812;SDS011;34221;45.296;9.516;2022-08-03T00:02:17;18.83;;;14.35;;
47812;SDS011;34221;45.296;9.516;2022-08-03T00:02:33;18.45;;;14.10;;
47812;SDS011;34221;45.296;9.516;2022-08-03T00:02:48;17.25;;;14.70;;
47812;SDS011;34221;45.296;9.516;2022-08-03T00:03:03;16.65;;;14.27;;
47812;SDS011;34221;45.296;9.516;2022-08-03T00:03:18;17.25;;;13.75;;
47812;SDS011;34221;45.296;9.516;2022-08-03T00:03:33;16.90;;;14.48;;
47812;SDS011;34221;45.296;9.516;2022-08-03T00:03:48;18.33;;;15.02;;
47812;SDS011;34221;45.296;9.516;2022-08-03T00:04:06;19.90;;;15.43;;
47812;SDS011;34221;45.296;9.516;2022-08-03T00:04:23;16.83;;;14.80;;
47812;SDS011;34221;45.296;9.516;2022-08-03T00:04:38;16.80;;;14.20;;
47812;SDS011;34221;45.296;9.516;2022-08-03T00:04:53;18.67;;;14.63;;
47812;SDS011;34221;45.296;9.516;2022-08-03T00:05:08;19.42;;;15.50;;
47812;SDS011;34221;45.296;9.516;2022-08-03T00:05:23;18.23;;;14.95;;
47812;SDS011;34221;45.296;9.516;2022-08-03T00:05:38;18.65;;;14.88;;
47812;SDS011;34221;45.296;9.516;2022-08-03T00:05:53;18.77;;;15.40;;
47812;SDS011;34221;45.296;9.516;2022-08-03T00:06:08;17.85;;;14.80;;
47812;SDS011;34221;45.296;9.516;2022-08-03T00:06:23;18.52;;;14.70;;
47812;SDS011;34221;45.296;9.516;2022-08-03T00:06:38;18.15;;;15.32;;
47812;SDS011;34221;45.296;9.516;2022-08-03T00:06:53;18.00;;;15.35;;
47812;SDS011;34221;45.296;9.516;2022-08-03T00:07:08;18.90;;;15.13;;
47812;SDS011;34221;45.296;9.516;2022-08-03T00:07:23;20.13;;;15.23;;
47812;SDS011;34221;45.296;9.516;2022-08-03T00:07:38;19.60;;;15.03;;
47812;SDS011;34221;45.296;9.516;2022-08-03T00:07:54;18.50;;;14.87;;
47812;SDS011;34221;45.296;9.516;2022-08-03T00:08:09;19.13;;;15.00;;
47812;SDS011;34221;45.296;9.516;2022-08-03T00:08:24;18.70;;;14.95;;
47812;SDS011;34221;45.296;9.516;2022-08-03T00:08:39;18.15;;;14.82;;
47812;SDS011;34221;45.296;9.516;2022-08-03T00:08:54;18.27;;;15.30;;
47812;SDS011;34221;45.296;9.516;2022-08-03T00:09:09;17.63;;;15.20;;
47812;SDS011;34221;45.296;9.516;2022-08-03T00:09:24;19.40;;;15.27;;
47812;SDS011;34221;45.296;9.516;2022-08-03T00:09:39;19.50;;;15.20;;
47812;SDS011;34221;45.296;9.516;2022-08-03T00:09:54;18.95;;;15.02;;
47812;SDS011;34221;45.296;9.516;2022-08-03T00:10:09;20.23;;;15.50;;
47812;SDS011;34221;45.296;9.516;2022-08-03T00:10:26;20.02;;;15.23;;
47812;SDS011;34221;45.296;9.516;2022-08-03T00:10:41;20.27;;;15.50;;
47812;SDS011;34221;45.296;9.516;2022-08-03T00:10:56;20.02;;;15.65;;
47812;SDS011;34221;45.296;9.516;2022-08-03T00:11:11;18.65;;;15.25;;
47812;SDS011;34221;45.296;9.516;2022-08-03T00:11:26;19.45;;;15.43;;
47812;SDS011;34221;45.296;9.516;2022-08-03T00:11:41;20.52;;;15.30;;
47812;SDS011;34221;45.296;9.516;2022-08-03T00:11:56;19.23;;;15.05;;
47812;SDS011;34221;45.296;9.516;2022-08-03T00:12:11;18.00;;;15.25;;
47812;SDS011;34221;45.296;9.516;2022-08-03T00:12:26;17.17;;;15.30;;
47812;SDS011;34221;45.296;9.516;2022-08-03T00:12:41;17.85;;;15.13;;
47812;SDS011;34221;45.296;9.516;2022-08-03T00:12:56;19.40;;;15.65;;
47812;SDS011;34221;45.296;9.516;2022-08-03T00:13:10;19.38;;;16.25;;
47812;SDS011;34221;45.296;9.516;2022-08-03T00:13:26;19.88;;;15.88;;
47812;SDS011;34221;45.296;9.516;2022-08-03T00:13:41;20.13;;;15.48;;
47812;SDS011;34221;45.296;9.516;2022-08-03T00:13:56;19.00;;;15.23;;
47812;SDS011;34221;45.296;9.516;2022-08-03T00:14:11;17.75;;;14.70;;
47812;SDS011;34221;45.296;9.516;2022-08-03T00:14:26;20.92;;;15.32;;
47812;SDS011;34221;45.296;9.516;2022-08-03T00:14:41;22.02;;;15.88;;
47812;SDS011;34221;45.296;9.516;2022-08-03T00:14:56;18.23;;;15.35;;
47812;SDS011;34221;45.296;9.516;2022-08-03T00:15:11;17.48;;;15.52;;
47812;SDS011;34221;45.296;9.516;2022-08-03T00:15:26;18.58;;;16.13;;
47812;SDS011;34221;45.296;9.516;2022-08-03T00:15:41;18.33;;;15.50;;
47812;SDS011;34221;45.296;9.516;2022-08-03T00:15:56;18.13;;;14.60;;
47812;SDS011;34221;45.296;9.516;2022-08-03T00:16:11;18.25;;;14.50;;
47812;SDS011;34221;45.296;9.516;2022-08-03T00:16:26;19.23;;;15.45;;
47812;SDS011;34221;45.296;9.516;2022-08-03T00:16:42;19.70;;;15.65;;
47812;SDS011;34221;45.296;9.516;2022-08-03T00:16:57;18.45;;;15.38;;
47812;SDS011;34221;45.296;9.516;2022-08-03T00:17:12;17.85;;;15.48;;
47812;SDS011;34221;45.296;9.516;2022-08-03T00:17:27;20.15;;;16.02;;
47812;SDS011;34221;45.296;9.516;2022-08-03T00:17:42;21.05;;;16.63;;
47812;SDS011;34221;45.296;9.516;2022-08-03T00:17:57;20.20;;;16.25;;
47812;SDS011;34221;45.296;9.516;2022-08-03T00:18:12;21.30;;;16.83;;
47812;SDS011;34221;45.296;9.516;2022-08-03T00:18:27;21.15;;;17.13;;
47812;SDS011;34221;45.296;9.516;2022-08-03T00:18:42;19.13;;;15.90;;
47812;SDS011;34221;45.296;9.516;2022-08-03T00:18:58;18.10;;;15.13;;
47812;SDS011;34221;45.296;9.516;2022-08-03T00:19:13;18.80;;;15.48;;
47812;SDS011;34221;45.296;9.516;2022-08-03T00:19:28;19.33;;;15.48;;
47812;SDS011;34221;45.296;9.516;2022-08-03T00:19:43;19.38;;;15.25;;
47812;SDS011;34221;45.296;9.516;2022-08-03T00:19:58;18.48;;;15.55;;
47812;SDS011;34221;45.296;9.516;2022-08-03T00:20:13;18.52;;;15.23;;
47812;SDS011;34221;45.296;9.516;2022-08-03T00:20:28;21.67;;;15.25;;
47812;SDS011;34221;45.296;9.516;2022-08-03T00:20:43;22.98;;;16.48;;
47812;SDS011;34221;45.296;9.516;2022-08-03T00:20:58;21.08;;;16.65;;
47812;SDS011;34221;45.296;9.516;2022-08-03T00:21:13;20.13;;;16.38;;
47812;SDS011;34221;45.296;9.516;2022-08-03T00:21:28;19.70;;;16.02;;
47812;SDS011;34221;45.296;9.516;2022-08-03T00:21:43;19.98;;;16.27;;
47812;SDS011;34221;45.296;9.516;2022-08-03T00:21:58;20.90;;;16.55;;
47812;SDS011;34221;45.296;9.516;2022-08-03T00:22:13;22.85;;;15.43;;
47812;SDS011;34221;45.296;9.516;2022-08-03T00:22:28;23.98;;;15.80;;
47812;SDS011;34221;45.296;9.516;2022-08-03T00:22:43;22.60;;;16.73;;
47812;SDS011;34221;45.296;9.516;2022-08-03T00:22:58;21.80;;;17.00;;
47812;SDS011;34221;45.296;9.516;2022-08-03T00:23:13;20.40;;;16.63;;
47812;SDS011;34221;45.296;9.516;2022-08-03T00:23:28;20.08;;;16.55;;
47812;SDS011;34221;45.296;9.516;2022-08-03T00:23:43;21.02;;;16.60;;
47812;SDS011;34221;45.296;9.516;2022-08-03T00:23:58;22.17;;;16.63;;
47812;SDS011;34221;45.296;9.516;2022-08-03T00:24:13;21.30;;;16.50;;
47812;SDS011;34221;45.296;9.516;2022-08-03T00:24:28;19.05;;;15.93;;
47812;SDS011;34221;45.296;9.516;2022-08-03T00:24:44;19.90;;;15.73;;
47812;SDS011;34221;45.296;9.516;2022-08-03T00:24:59;19.15;;;15.60;;
47812;SDS011;34221;45.296;9.516;2022-08-03T00:25:14;19.50;;;15.88;;
47812;SDS011;34221;45.296;9.516;2022-08-03T00:25:30;20.40;;;16.05;;
47812;SDS011;34221;45.296;9.516;2022-08-03T00:25:45;19.63;;;16.55;;
47812;SDS011;34221;45.296;9.516;2022-08-03T00:26:00;19.67;;;16.55;;
47812;SDS011;34221;45.296;9.516;2022-08-03T00:26:15;20.55;;;16.40;;
47812;SDS011;34221;45.296;9.516;2022-08-03T00:26:30;21.27;;;16.63;;
47812;SDS011;34221;45.296;9.516;2022-08-03T00:26:45;21.75;;;16.52;;
47812;SDS011;34221;45.296;9.516;2022-08-03T00:27:00;20.50;;;16.75;;
47812;SDS011;34221;45.296;9.516;2022-08-03T00:27:15;20.95;;;16.85;;
47812;SDS011;34221;45.296;9.516;2022-08-03T00:27:30;20.90;;;16.73;;
47812;SDS011;34221;45.296;9.516;2022-08-03T00:27:45;20.13;;;16.30;;
47812;SDS011;34221;45.296;9.516;2022-08-03T00:28:01;19.95;;;16.30;;
47812;SDS011;34221;45.296;9.516;2022-08-03T00:28:18;21.25;;;16.60;;
47812;SDS011;34221;45.296;9.516;2022-08-03T00:28:33;19.67;;;16.00;;
47812;SDS011;34221;45.296;9.516;2022-08-03T00:28:48;18.48;;;16.00;;
47812;SDS011;34221;45.296;9.516;2022-08-03T00:29:03;20.35;;;16.75;;
47812;SDS011;34221;45.296;9.516;2022-08-03T00:29:18;19.87;;;16.57;;
47812;SDS011;34221;45.296;9.516;2022-08-03T00:29:33;19.52;;;16.25;;
47812;SDS011;34221;45.296;9.516;2022-08-03T00:29:48;20.52;;;16.25;;
47812;SDS011;34221;45.296;9.516;2022-08-03T00:30:03;20.17;;;15.88;;
47812;SDS011;34221;45.296;9.516;2022-08-03T00:30:19;19.85;;;15.70;;
47812;SDS011;34221;45.296;9.516;2022-08-03T00:30:34;18.17;;;15.48;;
47812;SDS011;34221;45.296;9.516;2022-08-03T00:30:49;19.17;;;15.80;;
47812;SDS011;34221;45.296;9.516;2022-08-03T00:31:05;20.63;;;16.17;;
47812;SDS011;34221;45.296;9.516;2022-08-03T00:31:21;20.42;;;16.40;;
47812;SDS011;34221;45.296;9.516;2022-08-03T00:31:36;19.02;;;16.40;;
47812;SDS011;34221;45.296;9.516;2022-08-03T00:31:51;19.73;;;16.27;;
47812;SDS011;34221;45.296;9.516;2022-08-03T00:32:06;23.25;;;16.20;;
47812;SDS011;34221;45.296;9.516;2022-08-03T00:32:21;21.92;;;15.98;;
47812;SDS011;34221;45.296;9.516;2022-08-03T00:32:36;19.65;;;15.32;;
47812;SDS011;34221;45.296;9.516;2022-08-03T00:32:51;20.60;;;15.52;;
47812;SDS011;34221;45.296;9.516;2022-08-03T00:33:06;19.70;;;16.80;;
47812;SDS011;34221;45.296;9.516;2022-08-03T00:33:23;19.75;;;16.92;;
47812;SDS011;34221;45.296;9.516;2022-08-03T00:33:38;20.15;;;16.63;;
47812;SDS011;34221;45.296;9.516;2022-08-03T00:33:53;18.05;;;16.00;;
47812;SDS011;34221;45.296;9.516;2022-08-03T00:34:08;18.27;;;15.93;;
47812;SDS011;34221;45.296;9.516;2022-08-03T00:34:23;21.10;;;16.55;;
47812;SDS011;34221;45.296;9.516;2022-08-03T00:34:38;22.25;;;16.40;;
47812;SDS011;34221;45.296;9.516;2022-08-03T00:34:53;21.08;;;16.27;;
47812;SDS011;34221;45.296;9.516;2022-08-03T00:35:08;20.83;;;16.40;;
47812;SDS011;34221;45.296;9.516;2022-08-03T00:35:23;20.27;;;16.17;;
47812;SDS011;34221;45.296;9.516;2022-08-03T00:35:38;19.65;;;15.95;;
47812;SDS011;34221;45.296;9.516;2022-08-03T00:35:53;21.92;;;16.45;;
47812;SDS011;34221;45.296;9.516;2022-08-03T00:36:08;20.75;;;17.05;;
47812;SDS011;34221;45.296;9.516;2022-08-03T00:36:23;19.42;;;17.13;;
47812;SDS011;34221;45.296;9.516;2022-08-03T00:36:38;22.38;;;16.85;;
47812;SDS011;34221;45.296;9.516;2022-08-03T00:36:53;22.33;;;16.67;;
47812;SDS011;34221;45.296;9.516;2022-08-03T00:37:08;21.48;;;17.13;;
47812;SDS011;34221;45.296;9.516;2022-08-03T00:37:23;22.15;;;17.05;;
47812;SDS011;34221;45.296;9.516;2022-08-03T00:37:38;19.83;;;16.60;;
47812;SDS011;34221;45.296;9.516;2022-08-03T00:37:53;19.75;;;16.77;;
47812;SDS011;34221;45.296;9.516;2022-08-03T00:38:08;21.73;;;16.77;;
47812;SDS011;34221;45.296;9.516;2022-08-03T00:38:23;21.83;;;16.88;;
47812;SDS011;34221;45.296;9.516;2022-08-03T00:38:38;20.40;;;17.13;;
47812;SDS011;34221;45.296;9.516;2022-08-03T00:38:53;20.48;;;17.02;;
47812;SDS011;34221;45.296;9.516;2022-08-03T00:39:09;20.25;;;16.58;;
47812;SDS011;34221;45.296;9.516;2022-08-03T00:39:24;20.75;;;16.58;;
47812;SDS011;34221;45.296;9.516;2022-08-03T00:39:39;20.08;;;16.77;;
47812;SDS011;34221;45.296;9.516;2022-08-03T00:39:56;21.40;;;16.98;;
47812;SDS011;34221;45.296;9.516;2022-08-03T00:40:12;22.35;;;16.70;;
47812;SDS011;34221;45.296;9.516;2022-08-03T00:40:29;20.40;;;16.17;;
47812;SDS011;34221;45.296;9.516;2022-08-03T00:40:44;19.42;;;16.33;;
47812;SDS011;34221;45.296;9.516;2022-08-03T00:40:59;19.20;;;15.95;;
47812;SDS011;34221;45.296;9.516;2022-08-03T00:41:14;19.42;;;16.42;;
47812;SDS011;34221;45.296;9.516;2022-08-03T00:41:29;19.48;;;17.15;;
47812;SDS011;34221;45.296;9.516;2022-08-03T00:41:44;20.15;;;16.33;;
47812;SDS011;34221;45.296;9.516;2022-08-03T00:42:05;21.40;;;15.93;;
47812;SDS011;34221;45.296;9.516;2022-08-03T00:42:20;20.90;;;16.75;;
47812;SDS011;34221;45.296;9.516;2022-08-03T00:42:44;21.80;;;16.98;;
47812;SDS011;34221;45.296;9.516;2022-08-03T00:43:13;21.20;;;16.73;;
47812;SDS011;34221;45.296;9.516;2022-08-03T00:43:28;21.55;;;16.17;;
47812;SDS011;34221;45.296;9.516;2022-08-03T00:43:43;19.30;;;16.02;;
47812;SDS011;34221;45.296;9.516;2022-08-03T00:43:58;19.50;;;16.30;;
47812;SDS011;34221;45.296;9.516;2022-08-03T00:44:13;22.08;;;16.95;;
47812;SDS011;34221;45.296;9.516;2022-08-03T00:44:28;21.20;;;16.85;;
47812;SDS011;34221;45.296;9.516;2022-08-03T00:44:45;19.48;;;16.30;;
47812;SDS011;34221;45.296;9.516;2022-08-03T00:45:00;22.45;;;16.33;;
47812;SDS011;34221;45.296;9.516;2022-08-03T00:45:18;23.40;;;16.50;;
47812;SDS011;34221;45.296;9.516;2022-08-03T00:45:38;19.98;;;17.08;;
47812;SDS011;34221;45.296;9.516;2022-08-03T00:45:55;19.08;;;16.50;;
47812;SDS011;34221;45.296;9.516;2022-08-03T00:46:10;18.67;;;15.75;;
47812;SDS011;34221;45.296;9.516;2022-08-03T00:46:25;19.00;;;15.82;;
47812;SDS011;34221;45.296;9.516;2022-08-03T00:46:40;18.40;;;16.23;;
47812;SDS011;34221;45.296;9.516;2022-08-03T00:46:55;19.40;;;16.85;;
47812;SDS011;34221;45.296;9.516;2022-08-03T00:47:10;22.33;;;17.02;;
47812;SDS011;34221;45.296;9.516;2022-08-03T00:47:26;22.77;;;16.92;;
47812;SDS011;34221;45.296;9.516;2022-08-03T00:47:40;21.08;;;16.65;;
47812;SDS011;34221;45.296;9.516;2022-08-03T00:47:56;20.38;;;16.27;;
47812;SDS011;34221;45.296;9.516;2022-08-03T00:48:12;19.52;;;16.08;;
47812;SDS011;34221;45.296;9.516;2022-08-03T00:48:27;18.38;;;16.08;;
47812;SDS011;34221;45.296;9.516;2022-08-03T00:48:42;18.85;;;16.83;;
47812;SDS011;34221;45.296;9.516;2022-08-03T00:48:57;21.60;;;17.85;;
47812;SDS011;34221;45.296;9.516;2022-08-03T00:49:12;20.92;;;17.48;;
47812;SDS011;34221;45.296;9.516;2022-08-03T00:49:26;20.02;;;16.95;;
47812;SDS011;34221;45.296;9.516;2022-08-03T00:49:41;20.15;;;17.30;;
47812;SDS011;34221;45.296;9.516;2022-08-03T00:49:56;20.42;;;17.25;;
47812;SDS011;34221;45.296;9.516;2022-08-03T00:50:12;22.00;;;17.05;;
47812;SDS011;34221;45.296;9.516;2022-08-03T00:50:28;21.80;;;17.23;;
47812;SDS011;34221;45.296;9.516;2022-08-03T00:50:45;21.55;;;16.88;;
47812;SDS011;34221;45.296;9.516;2022-08-03T00:51:01;21.80;;;16.48;;
47812;SDS011;34221;45.296;9.516;2022-08-03T00:51:16;20.67;;;16.95;;
47812;SDS011;34221;45.296;9.516;2022-08-03T00:51:33;22.10;;;17.55;;
47812;SDS011;34221;45.296;9.516;2022-08-03T00:51:48;22.38;;;17.20;;
47812;SDS011;34221;45.296;9.516;2022-08-03T00:52:03;24.70;;;16.80;;
47812;SDS011;34221;45.296;9.516;2022-08-03T00:52:19;25.50;;;16.73;;
47812;SDS011;34221;45.296;9.516;2022-08-03T00:52:34;21.35;;;17.05;;
47812;SDS011;34221;45.296;9.516;2022-08-03T00:52:52;20.33;;;16.83;;
47812;SDS011;34221;45.296;9.516;2022-08-03T00:53:10;20.23;;;16.45;;
47812;SDS011;34221;45.296;9.516;2022-08-03T00:53:26;19.20;;;16.67;;
47812;SDS011;34221;45.296;9.516;2022-08-03T00:53:42;19.83;;;16.90;;
47812;SDS011;34221;45.296;9.516;2022-08-03T00:53:57;20.80;;;17.50;;
47812;SDS011;34221;45.296;9.516;2022-08-03T00:54:12;20.73;;;17.80;;
47812;SDS011;34221;45.296;9.516;2022-08-03T00:54:28;19.45;;;16.80;;
47812;SDS011;34221;45.296;9.516;2022-08-03T00:54:44;21.33;;;16.98;;
47812;SDS011;34221;45.296;9.516;2022-08-03T00:54:59;22.58;;;17.10;;
47812;SDS011;34221;45.296;9.516;2022-08-03T00:55:15;20.85;;;16.65;;
47812;SDS011;34221;45.296;9.516;2022-08-03T00:55:30;21.23;;;16.83;;
47812;SDS011;34221;45.296;9.516;2022-08-03T00:55:45;20.38;;;16.35;;
47812;SDS011;34221;45.296;9.516;2022-08-03T00:56:00;19.42;;;16.02;;
47812;SDS011;34221;45.296;9.516;2022-08-03T00:56:15;19.83;;;16.52;;
47812;SDS011;34221;45.296;9.516;2022-08-03T00:56:31;20.55;;;16.88;;
47812;SDS011;34221;45.296;9.516;2022-08-03T00:56:46;20.30;;;16.42;;
47812;SDS011;34221;45.296;9.516;2022-08-03T00:57:03;22.00;;;16.42;;
47812;SDS011;34221;45.296;9.516;2022-08-03T00:57:18;24.13;;;16.50;;
47812;SDS011;34221;45.296;9.516;2022-08-03T00:57:33;22.23;;;16.77;;
47812;SDS011;34221;45.296;9.516;2022-08-03T00:57:48;23.20;;;18.02;;
47812;SDS011;34221;45.296;9.516;2022-08-03T00:58:04;24.55;;;17.73;;
47812;SDS011;34221;45.296;9.516;2022-08-03T00:58:19;22.00;;;16.83;;
47812;SDS011;34221;45.296;9.516;2022-08-03T00:58:34;19.13;;;16.13;;
47812;SDS011;34221;45.296;9.516;2022-08-03T00:58:49;19.50;;;15.93;;
47812;SDS011;34221;45.296;9.516;2022-08-03T00:59:08;20.63;;;16.27;;
47812;SDS011;34221;45.296;9.516;2022-08-03T00:59:23;20.48;;;16.45;;
47812;SDS011;34221;45.296;9.516;2022-08-03T00:59:38;20.67;;;16.38;;
47812;SDS011;34221;45.296;9.516;2022-08-03T00:59:53;19.95;;;16.23;;
47812;SDS011;34221;45.296;9.516;2022-08-03T01:00:09;20.92;;;16.40;;
47812;SDS011;34221;45.296;9.516;2022-08-03T01:00:26;20.85;;;16.23;;
47812;SDS011;34221;45.296;9.516;2022-08-03T01:00:41;19.77;;;16.88;;
47812;SDS011;34221;45.296;9.516;2022-08-03T01:00:56;19.08;;;16.73;;
47812;SDS011;34221;45.296;9.516;2022-08-03T01:01:12;18.25;;;16.05;;
47812;SDS011;34221;45.296;9.516;2022-08-03T01:01:28;20.25;;;16.95;;
47812;SDS011;34221;45.296;9.516;2022-08-03T01:01:43;20.88;;;16.83;;
47812;SDS011;34221;45.296;9.516;2022-08-03T01:01:58;23.60;;;16.33;;
47812;SDS011;34221;45.296;9.516;2022-08-03T01:02:13;26.08;;;17.10;;
47812;SDS011;34221;45.296;9.516;2022-08-03T01:02:28;21.75;;;16.90;;
47812;SDS011;34221;45.296;9.516;2022-08-03T01:02:43;20.38;;;16.63;;
47812;SDS011;34221;45.296;9.516;2022-08-03T01:02:58;20.80;;;16.60;;
47812;SDS011;34221;45.296;9.516;2022-08-03T01:03:13;19.67;;;16.20;;
47812;SDS011;34221;45.296;9.516;2022-08-03T01:03:28;20.58;;;16.50;;
47812;SDS011;34221;45.296;9.516;2022-08-03T01:03:43;20.40;;;16.25;;
47812;SDS011;34221;45.296;9.516;2022-08-03T01:03:58;19.75;;;16.13;;
47812;SDS011;34221;45.296;9.516;2022-08-03T01:04:13;20.58;;;16.35;;
47812;SDS011;34221;45.296;9.516;2022-08-03T01:04:28;20.38;;;15.82;;
47812;SDS011;34221;45.296;9.516;2022-08-03T01:04:43;18.80;;;15.93;;
47812;SDS011;34221;45.296;9.516;2022-08-03T01:04:58;20.05;;;16.90;;
47812;SDS011;34221;45.296;9.516;2022-08-03T01:05:13;21.33;;;16.77;;
47812;SDS011;34221;45.296;9.516;2022-08-03T01:05:28;20.60;;;16.00;;
47812;SDS011;34221;45.296;9.516;2022-08-03T01:07:02;19.13;;;15.75;;
47812;SDS011;34221;45.296;9.516;2022-08-03T01:07:32;19.77;;;17.45;;
47812;SDS011;34221;45.296;9.516;2022-08-03T01:08:18;19.92;;;16.48;;
47812;SDS011;34221;45.296;9.516;2022-08-03T01:10:00;20.77;;;16.33;;
47812;SDS011;34221;45.296;9.516;2022-08-03T01:10:31;20.42;;;16.42;;
47812;SDS011;34221;45.296;9.516;2022-08-03T01:11:03;22.33;;;15.43;;
47812;SDS011;34221;45.296;9.516;2022-08-03T01:11:31;18.13;;;15.02;;
47812;SDS011;34221;45.296;9.516;2022-08-03T01:12:07;21.58;;;16.58;;
47812;SDS011;34221;45.296;9.516;2022-08-03T01:12:37;20.33;;;15.68;;
47812;SDS011;34221;45.296;9.516;2022-08-03T01:13:03;17.50;;;15.70;;
47812;SDS011;34221;45.296;9.516;2022-08-03T01:14:43;19.58;;;16.35;;
47812;SDS011;34221;45.296;9.516;2022-08-03T01:17:28;20.58;;;16.90;;
47812;SDS011;34221;45.296;9.516;2022-08-03T01:17:56;18.30;;;15.93;;
47812;SDS011;34221;45.296;9.516;2022-08-03T01:18:30;20.23;;;16.38;;
47812;SDS011;34221;45.296;9.516;2022-08-03T01:20:19;19.45;;;16.23;;
47812;SDS011;34221;45.296;9.516;2022-08-03T01:20:38;19.95;;;16.35;;
47812;SDS011;34221;45.296;9.516;2022-08-03T01:20:58;19.98;;;16.42;;
47812;SDS011;34221;45.296;9.516;2022-08-03T01:21:28;19.50;;;16.92;;
47812;SDS011;34221;45.296;9.516;2022-08-03T01:22:59;19.40;;;16.23;;
47812;SDS011;34221;45.296;9.516;2022-08-03T01:24:36;20.48;;;16.27;;
47812;SDS011;34221;45.296;9.516;2022-08-03T01:26:30;19.48;;;15.98;;
47812;SDS011;34221;45.296;9.516;2022-08-03T01:27:28;19.55;;;16.15;;
47812;SDS011;34221;45.296;9.516;2022-08-03T01:29:00;18.25;;;15.10;;
47812;SDS011;34221;45.296;9.516;2022-08-03T01:30:04;18.50;;;15.93;;
47812;SDS011;34221;45.296;9.516;2022-08-03T01:30:28;21.13;;;15.57;;
47812;SDS011;34221;45.296;9.516;2022-08-03T01:30:46;22.42;;;15.65;;
47812;SDS011;34221;45.296;9.516;2022-08-03T01:31:04;20.05;;;16.00;;
47812;SDS011;34221;45.296;9.516;2022-08-03T01:31:22;20.77;;;16.23;;
47812;SDS011;34221;45.296;9.516;2022-08-03T01:32:10;21.88;;;15.30;;
47812;SDS011;34221;45.296;9.516;2022-08-03T01:32:34;18.70;;;15.85;;
47812;SDS011;34221;45.296;9.516;2022-08-03T01:33:25;18.75;;;15.32;;
47812;SDS011;34221;45.296;9.516;2022-08-03T01:33:51;22.70;;;16.02;;
47812;SDS011;34221;45.296;9.516;2022-08-03T01:34:14;22.42;;;16.13;;
47812;SDS011;34221;45.296;9.516;2022-08-03T01:34:31;18.42;;;15.73;;
47812;SDS011;34221;45.296;9.516;2022-08-03T01:34:58;21.13;;;16.20;;
47812;SDS011;34221;45.296;9.516;2022-08-03T01:35:25;21.02;;;16.52;;
47812;SDS011;34221;45.296;9.516;2022-08-03T01:36:01;19.83;;;15.90;;
47812;SDS011;34221;45.296;9.516;2022-08-03T01:36:21;21.73;;;16.40;;
47812;SDS011;34221;45.296;9.516;2022-08-03T01:36:42;20.92;;;16.38;;
47812;SDS011;34221;45.296;9.516;2022-08-03T01:37:02;22.20;;;15.77;;
47812;SDS011;34221;45.296;9.516;2022-08-03T01:37:22;21.38;;;14.55;;
47812;SDS011;34221;45.296;9.516;2022-08-03T01:37:53;19.88;;;16.13;;
47812;SDS011;34221;45.296;9.516;2022-08-03T01:38:21;19.38;;;16.13;;
47812;SDS011;34221;45.296;9.516;2022-08-03T01:38:52;20.40;;;16.23;;
47812;SDS011;34221;45.296;9.516;2022-08-03T01:39:18;20.42;;;15.77;;
47812;SDS011;34221;45.296;9.516;2022-08-03T01:39:35;19.25;;;15.40;;
47812;SDS011;34221;45.296;9.516;2022-08-03T01:39:53;18.25;;;15.18;;
47812;SDS011;34221;45.296;9.516;2022-08-03T01:40:11;17.88;;;14.60;;
47812;SDS011;34221;45.296;9.516;2022-08-03T01:40:27;18.83;;;15.13;;
47812;SDS011;34221;45.296;9.516;2022-08-03T01:40:45;18.85;;;14.98;;
47812;SDS011;34221;45.296;9.516;2022-08-03T01:41:06;17.27;;;14.20;;
47812;SDS011;34221;45.296;9.516;2022-08-03T01:41:29;16.65;;;14.55;;
47812;SDS011;34221;45.296;9.516;2022-08-03T01:41:48;19.38;;;16.10;;
47812;SDS011;34221;45.296;9.516;2022-08-03T01:42:12;23.00;;;15.35;;
47812;SDS011;34221;45.296;9.516;2022-08-03T01:42:28;19.02;;;15.15;;
47812;SDS011;34221;45.296;9.516;2022-08-03T01:42:44;17.75;;;15.85;;
47812;SDS011;34221;45.296;9.516;2022-08-03T01:43:01;17.95;;;15.40;;
47812;SDS011;34221;45.296;9.516;2022-08-03T01:43:17;18.70;;;15.10;;
47812;SDS011;34221;45.296;9.516;2022-08-03T01:43:34;19.15;;;15.35;;
47812;SDS011;34221;45.296;9.516;2022-08-03T01:43:52;18.27;;;15.77;;
47812;SDS011;34221;45.296;9.516;2022-08-03T01:44:09;18.33;;;15.75;;
47812;SDS011;34221;45.296;9.516;2022-08-03T01:44:27;19.35;;;15.88;;
47812;SDS011;34221;45.296;9.516;2022-08-03T01:44:47;18.38;;;15.57;;
47812;SDS011;34221;45.296;9.516;2022-08-03T01:45:06;17.35;;;15.18;;
47812;SDS011;34221;45.296;9.516;2022-08-03T01:45:24;19.42;;;15.38;;
47812;SDS011;34221;45.296;9.516;2022-08-03T01:45:41;19.65;;;15.15;;
47812;SDS011;34221;45.296;9.516;2022-08-03T01:45:57;19.60;;;15.18;;
47812;SDS011;34221;45.296;9.516;2022-08-03T01:46:12;18.90;;;15.23;;
47812;SDS011;34221;45.296;9.516;2022-08-03T01:46:30;20.63;;;15.77;;
47812;SDS011;34221;45.296;9.516;2022-08-03T01:46:46;19.38;;;15.25;;
47812;SDS011;34221;45.296;9.516;2022-08-03T01:47:04;17.15;;;14.18;;
47812;SDS011;34221;45.296;9.516;2022-08-03T01:47:20;17.85;;;14.55;;
47812;SDS011;34221;45.296;9.516;2022-08-03T01:47:37;18.85;;;14.57;;
47812;SDS011;34221;45.296;9.516;2022-08-03T01:47:54;19.42;;;15.45;;
47812;SDS011;34221;45.296;9.516;2022-08-03T01:48:10;19.45;;;16.27;;
47812;SDS011;34221;45.296;9.516;2022-08-03T01:48:29;17.27;;;15.32;;
47812;SDS011;34221;45.296;9.516;2022-08-03T01:48:46;19.70;;;15.80;;
47812;SDS011;34221;45.296;9.516;2022-08-03T01:49:02;18.90;;;15.57;;
47812;SDS011;34221;45.296;9.516;2022-08-03T01:49:24;19.52;;;15.77;;
47812;SDS011;34221;45.296;9.516;2022-08-03T01:49:42;19.83;;;15.25;;
47812;SDS011;34221;45.296;9.516;2022-08-03T01:49:58;18.13;;;14.90;;
47812;SDS011;34221;45.296;9.516;2022-08-03T01:50:15;18.33;;;15.48;;
47812;SDS011;34221;45.296;9.516;2022-08-03T01:50:36;20.75;;;15.73;;
47812;SDS011;34221;45.296;9.516;2022-08-03T01:50:53;18.30;;;15.10;;
47812;SDS011;34221;45.296;9.516;2022-08-03T01:51:10;17.87;;;15.43;;
47812;SDS011;34221;45.296;9.516;2022-08-03T01:51:27;18.55;;;15.05;;
47812;SDS011;34221;45.296;9.516;2022-08-03T01:51:43;17.60;;;14.98;;
47812;SDS011;34221;45.296;9.516;2022-08-03T01:52:01;18.77;;;15.63;;
47812;SDS011;34221;45.296;9.516;2022-08-03T01:52:18;19.00;;;16.02;;
47812;SDS011;34221;45.296;9.516;2022-08-03T01:52:33;19.75;;;16.13;;
47812;SDS011;34221;45.296;9.516;2022-08-03T01:52:54;18.23;;;15.10;;
47812;SDS011;34221;45.296;9.516;2022-08-03T01:53:12;17.52;;;14.98;;
47812;SDS011;34221;45.296;9.516;2022-08-03T01:53:30;18.40;;;15.85;;
47812;SDS011;34221;45.296;9.516;2022-08-03T01:53:47;22.20;;;16.52;;
47812;SDS011;34221;45.296;9.516;2022-08-03T01:54:04;19.80;;;15.68;;
47812;SDS011;34221;45.296;9.516;2022-08-03T01:54:22;17.48;;;15.00;;